New York, New York
Current Conditions -  °F | °C
As of 2:51 PM on Friday 19 Dec 2014 (Local Time) from KNYC Reporting Station
Clear Clear  
Wind Chill: 31°   Ceiling: Unl
Heat Index: 36°   Visibility: 10mi
Dew Point: 19°   Wind: 6mph
Humidity: 50%   Direction: NA
Pressure: 30.07"   Gusts: 18mph
Location:  40.71°N, 74.01°W
Report Text: KNYC 191951Z AUTO VRB05G16KT 10SM CLR 02/M07 A3007 RMK AO2 SLP173 T00221072
Loading
Personal Weather Stations






























Interactive Weather Map New forecast layout! Learn more

10-Day Weather Forecast

Advertisements
Track Severe Weather on mobile